M I D A S
Marine Information and Data Acquisition System
Tripno 1875 of the Zeeleeuw from 2010-05-05 06:13:49 to 2010-05-05 14:26:35
Back to CruiseResearch ActivitiesStationsMapUnderway DataData graphs

EquipmentUnitsComment
TimeDGPSUTC
LatitudeDGPSDM.mWGS84
LongitudeDGPSDM.mWGS84
HeadingGyrodeg 
SOGDGPSknotsSpeed over ground
COGDGPSdegCourse over ground
DepthEcho soundermeters200 kHz
Missing or incorrect values are displayed as -999
Navigation data collected by the RV Zeeleeuw from 2010-05-05 06:17:15 to 2010-05-05 15:24:49
                                                                                    Next 1000 lines
Time Latitude Longitude Heading SOG COG Depth
2010-05-05 06:17:25 51°13.662 2°55.954 109.7 1.2 288 8.1
2010-05-05 06:17:30 51°13.662 2°55.95 109.4 1.7 291 8.2
2010-05-05 06:17:35 51°13.663 2°55.946 109.4 2.1 289 8.3
2010-05-05 06:17:41 51°13.664 2°55.94 109.4 2.5 290 -999
2010-05-05 06:17:46 51°13.666 2°55.934 109.4 2.9 289 -999
2010-05-05 06:17:52 51°13.668 2°55.925 109.2 3.3 290 -999
2010-05-05 06:17:58 51°13.67 2°55.916 109 3.6 287 -999
2010-05-05 06:18:04 51°13.672 2°55.907 108.8 3.7 288 -999
2010-05-05 06:18:09 51°13.673 2°55.898 108.6 3.9 286 -999
2010-05-05 06:18:14 51°13.675 2°55.89 108.6 4 286 -999
2010-05-05 06:18:19 51°13.676 2°55.881 109.2 4 287 -999
2010-05-05 06:18:24 51°13.678 2°55.872 110.2 4.1 287 -999
2010-05-05 06:18:29 51°13.68 2°55.863 111.5 4.3 288 -999
2010-05-05 06:18:34 51°13.682 2°55.854 112.8 4.4 290 -999
2010-05-05 06:18:39 51°13.685 2°55.845 114.5 4.6 292 -999
2010-05-05 06:18:44 51°13.687 2°55.836 116.5 4.7 293 -999
2010-05-05 06:18:49 51°13.69 2°55.826 118.5 4.8 296 -999
2010-05-05 06:18:54 51°13.694 2°55.816 120.6 5 298 -999
2010-05-05 06:18:59 51°13.697 2°55.806 122.6 5.1 301 -999
2010-05-05 06:19:04 51°13.701 2°55.797 125 5.2 302 -999
2010-05-05 06:19:09 51°13.705 2°55.788 126.4 5.2 304 -999
2010-05-05 06:19:14 51°13.71 2°55.779 127.8 5.1 305 -999
2010-05-05 06:19:19 51°13.714 2°55.77 128.6 5.1 306 -999
2010-05-05 06:19:24 51°13.718 2°55.761 129.4 5.1 307 -999
2010-05-05 06:19:29 51°13.722 2°55.752 130.9 5.1 308 -999
2010-05-05 06:19:34 51°13.727 2°55.743 132.6 5.2 310 -999
2010-05-05 06:19:39 51°13.732 2°55.735 134.4 5.2 311 -999
2010-05-05 06:19:44 51°13.737 2°55.726 136.6 5.3 314 -999
2010-05-05 06:19:49 51°13.742 2°55.718 138 5.3 315 -999
2010-05-05 06:19:54 51°13.747 2°55.71 139.6 5.3 317 -999
2010-05-05 06:19:59 51°13.753 2°55.702 141.5 5.3 318 -999
2010-05-05 06:20:04 51°13.758 2°55.695 143.5 5.3 321 -999
2010-05-05 06:20:09 51°13.764 2°55.688 145.4 5.3 322 -999
2010-05-05 06:20:14 51°13.77 2°55.681 147.8 5.3 325 -999
2010-05-05 06:20:19 51°13.777 2°55.675 150.3 5.5 328 -999
2010-05-05 06:20:24 51°13.784 2°55.669 152.5 5.6 331 -999
2010-05-05 06:20:29 51°13.791 2°55.663 154.8 5.7 332 -999
2010-05-05 06:20:34 51°13.798 2°55.658 156.2 5.6 334 -999
2010-05-05 06:20:39 51°13.805 2°55.653 157.1 5.5 334 -999
2010-05-05 06:20:44 51°13.812 2°55.648 158 5.5 336 -999
2010-05-05 06:20:49 51°13.819 2°55.643 159.3 5.5 336 -999
2010-05-05 06:20:54 51°13.826 2°55.638 160.6 5.4 337 -999
2010-05-05 06:20:59 51°13.833 2°55.634 161.8 5.3 338 -999
2010-05-05 06:21:04 51°13.839 2°55.63 163.2 5.2 340 -999
2010-05-05 06:21:09 51°13.846 2°55.626 165 5.1 340 -999
2010-05-05 06:21:14 51°13.852 2°55.623 167.5 4.9 343 -999
2010-05-05 06:21:19 51°13.859 2°55.621 170.2 4.8 346 -999
2010-05-05 06:21:24 51°13.865 2°55.619 173.1 4.6 349 -999
2010-05-05 06:21:29 51°13.872 2°55.618 176 4.5 352 -999
2010-05-05 06:21:34 51°13.877 2°55.617 179.2 4.4 354 -999
2010-05-05 06:21:39 51°13.883 2°55.616 182.3 4.3 357 -999
2010-05-05 06:21:44 51°13.889 2°55.617 186.4 4.1 1 -999
2010-05-05 06:21:49 51°13.894 2°55.617 189.2 3.9 3 -999
2010-05-05 06:21:54 51°13.899 2°55.619 192.6 3.6 8 -999
2010-05-05 06:21:59 51°13.904 2°55.62 195.8 3.5 10 -999
2010-05-05 06:22:04 51°13.908 2°55.622 198.9 3.4 14 -999
2010-05-05 06:22:09 51°13.912 2°55.625 201.2 3.2 18 -999
2010-05-05 06:22:13 51°13.915 2°55.626 203.5 3 20 4.7
2010-05-05 06:22:18 51°13.919 2°55.628 206.1 2.9 22 4.8
2010-05-05 06:22:24 51°13.923 2°55.631 207.9 2.7 24 4.8
2010-05-05 06:22:29 51°13.926 2°55.634 210.3 2.5 26 -999
2010-05-05 06:22:34 51°13.929 2°55.635 212.8 2.2 29 -999
2010-05-05 06:22:39 51°13.931 2°55.637 215.4 1.8 31 -999
2010-05-05 06:22:44 51°13.933 2°55.638 217.6 1.5 31 4.6
2010-05-05 06:22:49 51°13.934 2°55.64 219.1 1.1 35 4.6
2010-05-05 06:22:54 51°13.935 2°55.641 221.1 0.6 39 -999
2010-05-05 06:22:59 51°13.935 2°55.641 224.1 0.5 36 -999
2010-05-05 06:23:04 51°13.935 2°55.642 226.4 0.3 37 -999
2010-05-05 06:23:09 51°13.935 2°55.642 228.7 0.1 37 -999
2010-05-05 06:23:14 51°13.935 2°55.642 230.8 0.1 235 -999
2010-05-05 06:23:19 51°13.935 2°55.642 233.1 0.3 245 -999
2010-05-05 06:23:24 51°13.935 2°55.641 235.6 0.4 239 -999
2010-05-05 06:23:29 51°13.934 2°55.64 238.2 0.6 240 -999
2010-05-05 06:23:34 51°13.934 2°55.638 240.8 0.8 241 -999
2010-05-05 06:23:39 51°13.933 2°55.636 243.7 1 241 -999
2010-05-05 06:23:44 51°13.932 2°55.634 246.9 1 245 -999
2010-05-05 06:23:49 51°13.932 2°55.632 249.9 1 242 -999
2010-05-05 06:23:54 51°13.932 2°55.631 252.4 0.9 248 -999
2010-05-05 06:23:59 51°13.931 2°55.63 254 0.6 227 -999
2010-05-05 06:24:04 51°13.931 2°55.63 256 0.2 149 -999
2010-05-05 06:24:09 51°13.93 2°55.632 258.5 0.5 110 -999
2010-05-05 06:24:14 51°13.93 2°55.634 260.6 0.8 102 -999
2010-05-05 06:24:19 51°13.93 2°55.636 262.2 0.8 98 -999
2010-05-05 06:24:23 51°13.93 2°55.638 263.1 0.8 108 -999
2010-05-05 06:24:28 51°13.93 2°55.639 263.5 0.7 101 -999
2010-05-05 06:24:33 51°13.93 2°55.64 263.5 0.3 149 5.4
2010-05-05 06:24:39 51°13.929 2°55.638 263.8 0.8 239 -999
2010-05-05 06:24:44 51°13.929 2°55.635 265.5 1.2 262 5.7
2010-05-05 06:24:49 51°13.928 2°55.631 270.6 1.5 262 -999
2010-05-05 06:24:54 51°13.928 2°55.627 276.6 1.6 270 -999
2010-05-05 06:24:59 51°13.928 2°55.624 282.6 1.6 273 -999
2010-05-05 06:25:03 51°13.929 2°55.62 286.8 1.5 276 -999
2010-05-05 06:25:08 51°13.929 2°55.617 290.2 1.5 276 -999
2010-05-05 06:25:13 51°13.929 2°55.614 293.2 1.5 281 12.8
2010-05-05 06:25:18 51°13.93 2°55.612 295.2 1.5 282 12.8
2010-05-05 06:25:24 51°13.931 2°55.608 296.5 1.4 288 -999
2010-05-05 06:25:29 51°13.931 2°55.605 299 1.4 291 12.8
2010-05-05 06:25:33 51°13.932 2°55.603 301.4 1.4 293 12.7
2010-05-05 06:25:38 51°13.933 2°55.6 303.3 1.4 298 12.8
2010-05-05 06:25:43 51°13.934 2°55.597 305.6 1.4 298 12.7
2010-05-05 06:25:47 51°13.934 2°55.595 307.9 1.3 304 12.7
2010-05-05 06:25:52 51°13.935 2°55.592 310.6 1.3 303 -999
2010-05-05 06:25:57 51°13.936 2°55.59 312.6 1 308 -999
2010-05-05 06:26:04 51°13.937 2°55.589 315.3 0.6 295 -999
2010-05-05 06:26:09 51°13.936 2°55.589 317.4 0.1 292 12.7
2010-05-05 06:26:13 51°13.936 2°55.589 319.5 0.4 167 -999
2010-05-05 06:26:18 51°13.935 2°55.59 321.3 0.7 148 12.6
2010-05-05 06:26:24 51°13.933 2°55.591 323.8 1.2 154 -999
2010-05-05 06:26:29 51°13.932 2°55.592 325.2 1.2 150 -999
2010-05-05 06:26:34 51°13.93 2°55.593 326.7 1.2 153 12.7
2010-05-05 06:26:39 51°13.929 2°55.594 327.3 1.1 150 -999
2010-05-05 06:26:44 51°13.928 2°55.595 327.5 0.9 159 -999
2010-05-05 06:26:49 51°13.928 2°55.596 327.5 0.5 154 -999
2010-05-05 06:26:54 51°13.927 2°55.596 327.6 0.4 169 -999
2010-05-05 06:26:58 51°13.927 2°55.596 327.6 0.2 200 5.7
2010-05-05 06:27:04 51°13.927 2°55.596 327.8 0.2 253 -999
2010-05-05 06:27:09 51°13.927 2°55.595 328 0.2 300 4.7
2010-05-05 06:27:13 51°13.927 2°55.595 328.2 0.4 307 4.7
2010-05-05 06:27:18 51°13.928 2°55.594 328.2 0.6 314 -999
2010-05-05 06:27:24 51°13.929 2°55.592 328.4 1 323 4.8
2010-05-05 06:27:28 51°13.93 2°55.59 328.6 1.5 322 4.8
2010-05-05 06:27:33 51°13.933 2°55.588 329.1 1.9 328 -999
2010-05-05 06:27:38 51°13.935 2°55.586 330.4 2.1 327 5
2010-05-05 06:27:44 51°13.938 2°55.583 332.5 2.2 333 -999
2010-05-05 06:27:49 51°13.941 2°55.581 334.1 2.2 333 -999
2010-05-05 06:27:53 51°13.944 2°55.579 336.1 2.3 336 12.6
2010-05-05 06:27:58 51°13.946 2°55.577 337.8 2.3 337 12.6
2010-05-05 06:28:04 51°13.95 2°55.575 339 2.2 340 12.6
2010-05-05 06:28:09 51°13.953 2°55.574 340.8 2.2 340 12.4
2010-05-05 06:28:13 51°13.955 2°55.572 342.2 2.2 343 12.5
2010-05-05 06:28:18 51°13.958 2°55.571 343.3 2.1 344 12.5
2010-05-05 06:28:23 51°13.961 2°55.57 344.6 2.1 344 12.5
2010-05-05 06:28:28 51°13.963 2°55.569 345.7 2 347 12.5
2010-05-05 06:28:33 51°13.966 2°55.568 346.7 2 347 12.4
2010-05-05 06:28:37 51°13.968 2°55.567 347.5 1.9 349 12.7
2010-05-05 06:28:42 51°13.97 2°55.566 348.1 1.8 349 12.5
2010-05-05 06:28:47 51°13.973 2°55.565 348.6 1.8 350 12.5
2010-05-05 06:28:52 51°13.975 2°55.565 349.2 1.6 350 12.5
2010-05-05 06:28:57 51°13.977 2°55.564 349.9 1.4 353 12.7
2010-05-05 06:29:02 51°13.978 2°55.564 351.1 0.9 357 12.5
2010-05-05 06:29:07 51°13.979 2°55.564 351.7 0.6 359 13.1
2010-05-05 06:29:12 51°13.979 2°55.565 351.8 0.2 23 12.4
2010-05-05 06:29:17 51°13.979 2°55.565 351.4 0.1 121 12.5
2010-05-05 06:29:22 51°13.978 2°55.566 351 0.5 154 12.4
2010-05-05 06:29:27 51°13.978 2°55.566 350.7 0.5 156 12.4
2010-05-05 06:29:32 51°13.977 2°55.566 350.4 0.5 155 12.4
2010-05-05 06:29:37 51°13.976 2°55.567 349.9 0.5 164 12.5
2010-05-05 06:29:42 51°13.976 2°55.568 349.1 0.5 149 12.5
2010-05-05 06:29:47 51°13.976 2°55.568 348.3 0.4 161 -999
2010-05-05 06:29:53 51°13.975 2°55.569 347.2 0.4 153 -999
2010-05-05 06:29:57 51°13.975 2°55.569 346.3 0.3 165 -999
2010-05-05 06:30:03 51°13.974 2°55.569 345.6 0.3 165 -999
2010-05-05 06:30:09 51°13.974 2°55.569 344.6 0.3 169 4.5
2010-05-05 06:30:13 51°13.973 2°55.569 343.7 0.3 165 5.5
2010-05-05 06:30:19 51°13.973 2°55.569 342.5 0.3 170 -999
2010-05-05 06:30:24 51°13.972 2°55.569 341.3 0.2 167 -999
2010-05-05 06:30:29 51°13.972 2°55.569 340 0.2 175 10.5
2010-05-05 06:30:33 51°13.972 2°55.569 338.9 0.2 178 4.7
2010-05-05 06:30:39 51°13.972 2°55.569 337.7 0.1 192 -999
2010-05-05 06:30:44 51°13.971 2°55.569 336.9 0.2 170 12.5
2010-05-05 06:30:49 51°13.971 2°55.57 336.1 0.5 157 -999
2010-05-05 06:30:53 51°13.97 2°55.571 335.2 1 160 12.5
2010-05-05 06:30:58 51°13.968 2°55.572 334.7 1.5 151 -999
2010-05-05 06:31:04 51°13.965 2°55.574 334.3 1.7 156 12.5
2010-05-05 06:31:09 51°13.963 2°55.576 333.8 1.7 150 12.5
2010-05-05 06:31:13 51°13.961 2°55.577 333.6 1.8 155 -999
2010-05-05 06:31:19 51°13.959 2°55.579 333.1 1.8 151 -999
2010-05-05 06:31:24 51°13.956 2°55.581 332.5 1.9 154 -999
2010-05-05 06:31:29 51°13.954 2°55.583 331.8 1.9 151 -999
2010-05-05 06:31:34 51°13.952 2°55.584 331.1 1.8 152 12.6
2010-05-05 06:31:38 51°13.95 2°55.586 330.4 1.8 150 -999
2010-05-05 06:31:44 51°13.948 2°55.588 329.9 1.6 149 4.6
2010-05-05 06:31:49 51°13.946 2°55.59 328.9 1.6 149 -999
2010-05-05 06:31:54 51°13.944 2°55.592 327.8 1.7 150 4.6
2010-05-05 06:31:59 51°13.942 2°55.594 327 1.8 150 4.5
2010-05-05 06:32:04 51°13.94 2°55.596 326.6 1.7 150 -999
2010-05-05 06:32:09 51°13.938 2°55.598 325.6 1.8 150 -999
2010-05-05 06:32:13 51°13.936 2°55.599 324.9 1.9 148 -999
2010-05-05 06:32:19 51°13.933 2°55.602 324.1 2 150 12.6
2010-05-05 06:32:24 51°13.931 2°55.604 323.7 1.9 146 12.7
2010-05-05 06:32:29 51°13.929 2°55.606 323.3 1.9 150 12.7
2010-05-05 06:32:34 51°13.927 2°55.608 322.8 1.8 147 -999
2010-05-05 06:32:39 51°13.924 2°55.61 322.1 1.8 151 -999
2010-05-05 06:32:44 51°13.922 2°55.612 321.6 1.7 149 -999
2010-05-05 06:32:49 51°13.92 2°55.614 321.3 1.6 151 -999
2010-05-05 06:32:54 51°13.919 2°55.615 320.7 1.3 153 -999
2010-05-05 06:32:58 51°13.918 2°55.615 320.3 0.8 165 -999
2010-05-05 06:33:04 51°13.917 2°55.616 319.9 0.6 169 -999
2010-05-05 06:33:09 51°13.917 2°55.615 319.8 0.4 193 -999
2010-05-05 06:33:14 51°13.916 2°55.615 319.5 0.4 208 -999
2010-05-05 06:33:19 51°13.916 2°55.614 319.4 0.4 202 -999
2010-05-05 06:33:24 51°13.915 2°55.614 318.9 0.4 198 -999
2010-05-05 06:33:29 51°13.914 2°55.614 318.3 0.4 193 -999
2010-05-05 06:33:34 51°13.914 2°55.614 317.7 0.5 195 -999
2010-05-05 06:33:39 51°13.913 2°55.614 316.9 0.5 182 -999
2010-05-05 06:33:44 51°13.912 2°55.614 316.1 0.6 178 -999
2010-05-05 06:33:49 51°13.911 2°55.614 314.9 0.5 176 12.5
2010-05-05 06:33:54 51°13.911 2°55.614 314.2 0.7 167 12.5
2010-05-05 06:33:58 51°13.91 2°55.615 313 0.9 158 12.7
2010-05-05 06:34:04 51°13.908 2°55.617 312.2 1 152 -999
2010-05-05 06:34:09 51°13.907 2°55.618 311.7 1 152 12.5
2010-05-05 06:34:14 51°13.906 2°55.619 310.4 1 145 -999
2010-05-05 06:34:19 51°13.904 2°55.62 309.3 1.1 145 12.7
2010-05-05 06:34:24 51°13.903 2°55.621 307.2 1.1 142 -999
2010-05-05 06:34:29 51°13.902 2°55.623 306.2 1.2 136 12.4
2010-05-05 06:34:33 51°13.901 2°55.624 304.6 1.2 134 12.5
2010-05-05 06:34:39 51°13.899 2°55.627 302.9 1.1 132 -999
2010-05-05 06:34:44 51°13.899 2°55.629 301.4 1.1 127 -999
2010-05-05 06:34:49 51°13.898 2°55.63 300.5 0.9 128 5.9
2010-05-05 06:34:53 51°13.897 2°55.631 299.5 0.9 125 -999
2010-05-05 06:34:59 51°13.897 2°55.633 299 0.6 126 -999
2010-05-05 06:35:04 51°13.896 2°55.633 298.3 0.4 142 12.4
2010-05-05 06:35:09 51°13.896 2°55.633 298.2 0.2 174 -999
2010-05-05 06:35:13 51°13.896 2°55.632 298.6 0.3 254 -999
2010-05-05 06:35:19 51°13.896 2°55.631 299.3 0.5 279 -999
2010-05-05 06:35:24 51°13.897 2°55.629 300.9 0.8 284 -999
2010-05-05 06:35:29 51°13.897 2°55.628 303.2 1 290 -999
2010-05-05 06:35:33 51°13.898 2°55.626 305.1 1.2 296 12.4
2010-05-05 06:35:39 51°13.899 2°55.623 308 1.3 301 -999
2010-05-05 06:35:44 51°13.9 2°55.62 310.8 1.5 305 -999
2010-05-05 06:35:49 51°13.902 2°55.617 315.6 1.7 312 -999
2010-05-05 06:35:54 51°13.904 2°55.614 319.4 1.9 316 -999
2010-05-05 06:35:59 51°13.906 2°55.611 322.7 2.1 319 12.7
2010-05-05 06:36:04 51°13.909 2°55.608 325.6 2.3 323 -999
2010-05-05 06:36:09 51°13.912 2°55.605 327.4 2.5 325 12.4
2010-05-05 06:36:14 51°13.915 2°55.601 329.6 2.7 327 -999
2010-05-05 06:36:19 51°13.918 2°55.598 330.6 3 328 -999
2010-05-05 06:36:24 51°13.922 2°55.594 331.1 3.2 329 12.5
2010-05-05 06:36:29 51°13.926 2°55.59 331.4 3.4 329 -999
2010-05-05 06:36:34 51°13.931 2°55.587 331.6 3.5 329 12.5
2010-05-05 06:36:39 51°13.935 2°55.582 331.6 3.7 329 -999
2010-05-05 06:36:44 51°13.939 2°55.577 331.6 3.8 329 12.4
2010-05-05 06:36:49 51°13.944 2°55.573 331.6 3.9 330 -999
2010-05-05 06:36:53 51°13.948 2°55.57 331.6 4 330 12.4
2010-05-05 06:36:58 51°13.953 2°55.565 331.7 4 331 12.4
2010-05-05 06:37:03 51°13.958 2°55.561 331.9 4.1 331 12.6
2010-05-05 06:37:09 51°13.964 2°55.556 332.3 4.1 331 -999
2010-05-05 06:37:13 51°13.968 2°55.553 332.6 4.1 332 -999
2010-05-05 06:37:19 51°13.974 2°55.548 333.4 4.1 332 -999
2010-05-05 06:37:24 51°13.979 2°55.544 334 4.1 333 -999
2010-05-05 06:37:29 51°13.984 2°55.54 334.7 4 333 -999
2010-05-05 06:37:34 51°13.989 2°55.536 335.3 4 334 -999
2010-05-05 06:37:39 51°13.994 2°55.532 335.9 4 334 -999
2010-05-05 06:37:44 51°13.999 2°55.529 336.5 4 334 -999
2010-05-05 06:37:49 51°14.004 2°55.525 336.7 4 335 12.3
2010-05-05 06:37:54 51°14.009 2°55.521 336.9 4 334 -999
2010-05-05 06:37:58 51°14.013 2°55.518 337 4 334 12.5
2010-05-05 06:38:04 51°14.019 2°55.513 337 4 333 12.3
2010-05-05 06:38:09 51°14.023 2°55.509 336.9 4 334 -999
2010-05-05 06:38:13 51°14.027 2°55.506 336.8 3.9 334 12.3
2010-05-05 06:38:18 51°14.032 2°55.502 336.9 3.9 333 12.3
2010-05-05 06:38:23 51°14.037 2°55.498 337.2 3.9 334 12.3
2010-05-05 06:38:28 51°14.042 2°55.494 337.4 3.9 333 12.3
2010-05-05 06:38:33 51°14.047 2°55.49 337.4 3.9 332 12.3
2010-05-05 06:38:38 51°14.051 2°55.486 337.1 3.9 332 12.5
2010-05-05 06:38:43 51°14.056 2°55.482 336.7 3.9 332 12.2
2010-05-05 06:38:48 51°14.061 2°55.478 336.2 3.9 331 12.2
2010-05-05 06:38:53 51°14.066 2°55.474 336.1 3.9 332 12.2
2010-05-05 06:38:57 51°14.07 2°55.471 336.3 3.9 331 12.5
2010-05-05 06:39:02 51°14.074 2°55.467 337.1 3.9 334 12.2
2010-05-05 06:39:07 51°14.079 2°55.463 337.8 3.9 333 12.2
2010-05-05 06:39:12 51°14.084 2°55.459 338.9 3.9 335 12.3
2010-05-05 06:39:17 51°14.089 2°55.455 340 3.9 334 12.2
2010-05-05 06:39:21 51°14.093 2°55.452 340.5 3.9 336 12.2
2010-05-05 06:39:26 51°14.098 2°55.449 340.9 3.9 336 12.2
2010-05-05 06:39:31 51°14.103 2°55.445 340.9 4 336 12.2
2010-05-05 06:39:36 51°14.108 2°55.441 340.5 4 336 12.2
2010-05-05 06:39:41 51°14.113 2°55.437 339.8 4 335 12.2
2010-05-05 06:39:46 51°14.118 2°55.434 339.4 4.1 336 12
2010-05-05 06:39:51 51°14.124 2°55.43 338.8 4.1 335 12.2
2010-05-05 06:39:55 51°14.128 2°55.427 338.4 4.1 336 12.2
2010-05-05 06:40:00 51°14.133 2°55.423 338.3 4.1 335 12.1
2010-05-05 06:40:05 51°14.138 2°55.419 337.7 4.2 335 12.1
2010-05-05 06:40:10 51°14.143 2°55.414 337.2 4.3 334 12.1
2010-05-05 06:40:15 51°14.149 2°55.41 336.8 4.3 334 12.1
2010-05-05 06:40:20 51°14.154 2°55.406 336.1 4.4 333 12.1
2010-05-05 06:40:25 51°14.16 2°55.401 335.4 4.5 333 12
2010-05-05 06:40:30 51°14.166 2°55.397 335 4.6 332 12.1
2010-05-05 06:40:35 51°14.172 2°55.392 334.6 4.8 332 12.2
2010-05-05 06:40:40 51°14.177 2°55.387 333.7 4.8 330 12
2010-05-05 06:40:45 51°14.183 2°55.381 332.2 4.9 329 12.1
2010-05-05 06:40:50 51°14.189 2°55.375 330 5 326 -999
2010-05-05 06:40:56 51°14.196 2°55.367 328.2 5.1 325 12
2010-05-05 06:41:01 51°14.202 2°55.36 327.5 5.2 325 -999
2010-05-05 06:41:05 51°14.207 2°55.355 327.1 5.3 324 12
2010-05-05 06:41:11 51°14.214 2°55.346 326.7 5.4 323 12.1
2010-05-05 06:41:16 51°14.22 2°55.339 326.3 5.6 323 12.1
2010-05-05 06:41:21 51°14.227 2°55.332 326.3 5.7 323 12
2010-05-05 06:41:25 51°14.232 2°55.326 326.3 5.7 323 12.1
2010-05-05 06:41:30 51°14.238 2°55.318 326.1 5.9 323 12.1
2010-05-05 06:41:35 51°14.245 2°55.311 325.7 6 323 12.1
2010-05-05 06:41:41 51°14.254 2°55.301 326.2 6.3 324 -999
2010-05-05 06:41:46 51°14.262 2°55.292 327.4 7 325 11.9
2010-05-05 06:41:51 51°14.27 2°55.283 327.6 7.4 325 12
2010-05-05 06:41:56 51°14.279 2°55.272 327.6 7.8 324 11.9
2010-05-05 06:42:01 51°14.288 2°55.262 328 8.1 327 12.4
2010-05-05 06:42:06 51°14.298 2°55.252 328.7 8.5 326 12
2010-05-05 06:42:11 51°14.308 2°55.241 328.7 8.9 326 12.3
2010-05-05 06:42:16 51°14.319 2°55.23 328.7 9.1 326 12.3
2010-05-05 06:42:21 51°14.33 2°55.218 328.9 9.4 326 12.2
2010-05-05 06:42:25 51°14.339 2°55.209 329.5 9.6 327 11.9
2010-05-05 06:42:30 51°14.35 2°55.197 329.2 9.8 326 12.5
2010-05-05 06:42:35 51°14.362 2°55.185 329.4 10.1 327 12.1
2010-05-05 06:42:40 51°14.374 2°55.172 330.2 10.3 327 12
2010-05-05 06:42:45 51°14.386 2°55.159 329.4 10.6 326 12.2
2010-05-05 06:42:49 51°14.396 2°55.148 328.6 10.8 326 11.9
2010-05-05 06:42:55 51°14.412 2°55.132 329.3 11 328 11.9
2010-05-05 06:43:00 51°14.425 2°55.12 330.6 11 328 12
2010-05-05 06:43:05 51°14.438 2°55.106 330.2 11.2 326 11.9
2010-05-05 06:43:10 51°14.451 2°55.092 329.6 11.4 326 12.2
2010-05-05 06:43:15 51°14.464 2°55.078 329.6 11.7 326 12.4
2010-05-05 06:43:20 51°14.478 2°55.062 327.9 11.9 322 12.1
2010-05-05 06:43:25 51°14.491 2°55.046 326.4 12 323 12.3
2010-05-05 06:43:30 51°14.505 2°55.03 326.3 12.2 324 12.3
2010-05-05 06:43:35 51°14.519 2°55.013 326 12.5 323 12.2
2010-05-05 06:43:40 51°14.533 2°54.998 326.3 12.8 327 12
2010-05-05 06:43:45 51°14.548 2°54.982 328.1 13 327 12.4
2010-05-05 06:43:50 51°14.564 2°54.967 329.2 13.3 328 12.1
2010-05-05 06:43:55 51°14.58 2°54.951 329.4 13.4 328 12.1
2010-05-05 06:44:00 51°14.596 2°54.935 329.6 13.5 329 12.1
2010-05-05 06:44:05 51°14.612 2°54.92 330.3 13.5 329 12.4
2010-05-05 06:44:10 51°14.628 2°54.904 329.8 13.7 329 12.2
2010-05-05 06:44:15 51°14.645 2°54.889 329.8 13.7 331 12
2010-05-05 06:44:21 51°14.664 2°54.871 329.8 13.8 330 -999
2010-05-05 06:44:25 51°14.678 2°54.858 329.3 13.8 329 12.3
2010-05-05 06:44:30 51°14.694 2°54.843 328.9 13.8 329 12.2
2010-05-05 06:44:35 51°14.71 2°54.827 328.4 13.7 328 12.3
2010-05-05 06:44:41 51°14.73 2°54.807 327.8 13.8 329 12.4
2010-05-05 06:44:45 51°14.742 2°54.794 327.4 13.7 328 12.4
2010-05-05 06:44:50 51°14.759 2°54.778 327.6 13.7 328 11.9
2010-05-05 06:44:55 51°14.774 2°54.761 326.8 13.6 325 12
2010-05-05 06:45:00 51°14.79 2°54.745 326.4 13.6 327 12
2010-05-05 06:45:05 51°14.805 2°54.727 325.5 13.6 325 12.3
2010-05-05 06:45:09 51°14.818 2°54.714 325.7 13.5 327 12.3
2010-05-05 06:45:15 51°14.836 2°54.694 325.6 13.6 326 12.6
2010-05-05 06:45:20 51°14.852 2°54.677 325.7 13.6 326 12.3
2010-05-05 06:45:25 51°14.868 2°54.66 325.6 13.6 326 -999
2010-05-05 06:45:30 51°14.884 2°54.644 325.7 13.6 327 12.4
2010-05-05 06:45:36 51°14.903 2°54.624 325.8 13.6 327 -999
2010-05-05 06:45:41 51°14.918 2°54.607 325.6 13.6 326 -999
2010-05-05 06:45:46 51°14.934 2°54.59 325.6 13.6 327 -999
2010-05-05 06:45:51 51°14.949 2°54.574 325.2 13.5 326 11.5
2010-05-05 06:45:56 51°14.965 2°54.557 325.1 13.4 326 11.3
2010-05-05 06:46:01 51°14.98 2°54.54 325 13.4 325 11.5
2010-05-05 06:46:05 51°14.992 2°54.527 324.8 13.4 326 11.6
2010-05-05 06:46:10 51°15.007 2°54.51 324.9 13.5 325 11.5
2010-05-05 06:46:16 51°15.026 2°54.49 324.9 13.6 326 11.5
2010-05-05 06:46:21 51°15.042 2°54.473 325.5 13.6 327 11.5
2010-05-05 06:46:25 51°15.055 2°54.461 325.9 13.6 328 11.3
2010-05-05 06:46:29 51°15.068 2°54.448 326.2 13.6 328 11.3
2010-05-05 06:46:35 51°15.087 2°54.428 326.2 13.6 327 11.4
2010-05-05 06:46:40 51°15.102 2°54.411 325.2 13.6 325 11.4
2010-05-05 06:46:45 51°15.117 2°54.394 324.1 13.5 324 11.2
2010-05-05 06:46:50 51°15.133 2°54.376 323.4 13.6 323 11.4
2010-05-05 06:46:55 51°15.147 2°54.357 322.6 13.5 322 11
2010-05-05 06:47:00 51°15.162 2°54.339 321.8 13.5 322 11.2
2010-05-05 06:47:05 51°15.177 2°54.321 321.6 13.6 322 11.4
2010-05-05 06:47:09 51°15.189 2°54.306 321.5 13.6 321 11.4
2010-05-05 06:47:15 51°15.206 2°54.283 320.9 13.6 321 11.3
2010-05-05 06:47:20 51°15.221 2°54.264 321 13.6 321 11.4
2010-05-05 06:47:25 51°15.236 2°54.246 321.8 13.6 323 11.4
2010-05-05 06:47:30 51°15.25 2°54.227 322 13.6 321 11.2
2010-05-05 06:47:35 51°15.266 2°54.209 322.8 13.6 324 11.4
2010-05-05 06:47:41 51°15.283 2°54.187 323.1 13.6 322 11.3
2010-05-05 06:47:45 51°15.296 2°54.173 323.1 13.6 324 11.6
2010-05-05 06:47:50 51°15.311 2°54.155 323.8 13.6 323 11.6
2010-05-05 06:47:56 51°15.329 2°54.134 323.8 13.6 325 11.4
2010-05-05 06:48:01 51°15.344 2°54.117 324.2 13.6 324 11.4
2010-05-05 06:48:05 51°15.357 2°54.102 324.4 13.6 324 11.7
2010-05-05 06:48:10 51°15.372 2°54.085 324.2 13.6 324 11.6
2010-05-05 06:48:15 51°15.387 2°54.067 324.2 13.6 324 11.9
2010-05-05 06:48:20 51°15.402 2°54.049 324.2 13.6 324 12
2010-05-05 06:48:25 51°15.418 2°54.031 324.4 13.7 324 11.8
2010-05-05 06:48:30 51°15.433 2°54.014 324.1 13.6 324 11.5
2010-05-05 06:48:35 51°15.449 2°53.996 324.1 13.6 324 12.1
2010-05-05 06:48:40 51°15.464 2°53.978 324.1 13.6 324 11.8
2010-05-05 06:48:45 51°15.479 2°53.961 324.5 13.6 325 11.7
2010-05-05 06:48:50 51°15.494 2°53.943 323.6 13.6 323 12.2
2010-05-05 06:48:55 51°15.509 2°53.925 323.4 13.6 324 12.2
2010-05-05 06:49:01 51°15.527 2°53.903 323.1 13.6 323 12
2010-05-05 06:49:05 51°15.54 2°53.89 323.3 13.6 325 12.1
2010-05-05 06:49:10 51°15.555 2°53.871 323.5 13.6 323 12.4
2010-05-05 06:49:15 51°15.57 2°53.854 323.5 13.5 324 12.5
2010-05-05 06:49:20 51°15.585 2°53.835 322.3 13.6 321 12.8
2010-05-05 06:49:25 51°15.6 2°53.817 321.6 13.6 322 12.3
2010-05-05 06:49:30 51°15.614 2°53.798 320.6 13.5 321 12.2
2010-05-05 06:49:35 51°15.629 2°53.779 320.1 13.5 321 12.5
2010-05-05 06:49:40 51°15.643 2°53.76 319.4 13.5 320 12.6
2010-05-05 06:49:45 51°15.658 2°53.741 319.3 13.6 321 12.5
2010-05-05 06:49:50 51°15.672 2°53.721 318.9 13.6 319 12.5
2010-05-05 06:49:55 51°15.687 2°53.702 319 13.6 320 12.8
2010-05-05 06:50:00 51°15.701 2°53.682 318.9 13.6 319 12.8
2010-05-05 06:50:05 51°15.716 2°53.663 318.6 13.6 320 12.5
2010-05-05 06:50:10 51°15.73 2°53.644 318.8 13.6 321 12.6
2010-05-05 06:50:15 51°15.745 2°53.625 319.6 13.6 321 12.5
2010-05-05 06:50:21 51°15.762 2°53.603 320.2 13.6 321 12.6
2010-05-05 06:50:25 51°15.774 2°53.588 320.7 13.7 322 12.8
2010-05-05 06:50:30 51°15.789 2°53.57 321.4 13.4 322 12.4
2010-05-05 06:50:35 51°15.804 2°53.552 321.9 13.5 323 12.8
2010-05-05 06:50:41 51°15.822 2°53.531 323 13.5 325 12.8
2010-05-05 06:50:45 51°15.834 2°53.517 323.6 13.5 324 13.1
2010-05-05 06:50:50 51°15.85 2°53.5 324.5 13.6 326 13.1
2010-05-05 06:50:55 51°15.866 2°53.483 324.7 13.6 325 12.7
2010-05-05 06:51:01 51°15.885 2°53.464 325.2 13.6 327 12.8
2010-05-05 06:51:05 51°15.897 2°53.451 325.8 13.6 327 12.8
2010-05-05 06:51:09 51°15.91 2°53.439 327.2 13.5 329 13
2010-05-05 06:51:15 51°15.929 2°53.42 328 13.5 328 12.8
2010-05-05 06:51:20 51°15.946 2°53.405 328.7 13.5 330 13.2
2010-05-05 06:51:25 51°15.962 2°53.39 329.6 13.6 330 12.8
2010-05-05 06:51:30 51°15.978 2°53.375 329.7 13.6 330 13
2010-05-05 06:51:35 51°15.995 2°53.361 330.1 13.5 331 12.8
2010-05-05 06:51:40 51°16.011 2°53.346 330.5 13.6 331 12.9
2010-05-05 06:51:45 51°16.028 2°53.332 331.1 13.6 332 12.7
2010-05-05 06:51:49 51°16.041 2°53.32 331 13.4 331 13
2010-05-05 06:51:55 51°16.061 2°53.303 331.1 13.5 332 13.2
2010-05-05 06:52:00 51°16.077 2°53.289 330.9 13.6 332 13.5
2010-05-05 06:52:05 51°16.094 2°53.275 331.3 13.5 332 13
2010-05-05 06:52:10 51°16.11 2°53.261 331.4 13.5 333 13
2010-05-05 06:52:15 51°16.127 2°53.247 331.2 13.5 332 13.4
2010-05-05 06:52:21 51°16.146 2°53.23 331.1 13.4 332 13.1
2010-05-05 06:52:25 51°16.16 2°53.219 331.1 13.5 332 13.2
2010-05-05 06:52:29 51°16.173 2°53.208 331 13.4 332 13.1
2010-05-05 06:52:35 51°16.193 2°53.191 330.9 13.4 332 13.8
2010-05-05 06:52:40 51°16.209 2°53.177 330.9 13.6 332 13.7
2010-05-05 06:52:45 51°16.226 2°53.163 330.9 13.5 332 13.4
2010-05-05 06:53:43 51°16.422 2°53.008 336.5 13.7 339 13.3
2010-05-05 06:53:48 51°16.44 2°52.997 337.6 13.8 340 13.4
2010-05-05 06:54:09 51°16.516 2°52.956 340.7 13.8 341 13.2
2010-05-05 06:54:32 51°16.6 2°52.914 342.1 13.8 343 12.5
2010-05-05 06:54:33 51°16.604 2°52.912 342.1 13.8 343 12.5
2010-05-05 06:54:59 51°16.7 2°52.875 346.3 13.7 347 12.8
2010-05-05 06:55:17 51°16.767 2°52.851 347 13.8 347 11.7
2010-05-05 06:56:39 51°17.076 2°52.739 346 14.1 347 11.4
2010-05-05 06:56:45 51°17.098 2°52.73 345.7 14.1 346 11
2010-05-05 06:56:49 51°17.113 2°52.724 345.6 14.1 346 10.9
2010-05-05 06:56:54 51°17.132 2°52.716 345.5 14 346 10.5
2010-05-05 06:56:59 51°17.151 2°52.709 345.6 13.9 346 10.7
2010-05-05 06:57:05 51°17.174 2°52.7 345.5 13.9 346 11.2
2010-05-05 06:57:09 51°17.189 2°52.694 345.6 14 346 11
2010-05-05 06:57:14 51°17.208 2°52.686 345.6 14.1 346 11.1
2010-05-05 06:57:19 51°17.227 2°52.679 345.8 14 346 10.9
2010-05-05 06:57:24 51°17.246 2°52.672 346 14 347 10.9
2010-05-05 06:57:29 51°17.265 2°52.665 346 14.1 347 10.7
2010-05-05 06:57:34 51°17.283 2°52.658 345.9 14 347 11.6
2010-05-05 06:57:39 51°17.302 2°52.65 345.7 14 346 11.5
2010-05-05 06:57:44 51°17.321 2°52.643 345.6 14 346 11.5
2010-05-05 06:57:49 51°17.34 2°52.635 345.4 14 346 11.5
2010-05-05 06:57:54 51°17.358 2°52.629 345.3 14 346 11.6
2010-05-05 06:57:59 51°17.377 2°52.621 345.1 14 345 11.5
2010-05-05 06:58:04 51°17.396 2°52.613 345.5 13.8 346 10.9
2010-05-05 06:58:09 51°17.414 2°52.606 345.4 13.7 345 11.6
2010-05-05 06:58:14 51°17.433 2°52.598 345.3 13.8 346 11.7
2010-05-05 06:58:19 51°17.451 2°52.591 345.2 13.8 346 11.4
2010-05-05 06:58:25 51°17.474 2°52.582 345.6 13.7 346 11.8
2010-05-05 06:58:29 51°17.489 2°52.576 345.5 13.7 346 12.2
2010-05-05 06:58:34 51°17.507 2°52.569 345.6 13.8 346 11.9
2010-05-05 06:58:39 51°17.526 2°52.562 345.5 13.8 346 11.8
2010-05-05 06:58:44 51°17.544 2°52.554 345.6 13.9 347 11.8
2010-05-05 06:58:49 51°17.563 2°52.547 345.5 13.9 346 11.3
2010-05-05 06:58:54 51°17.582 2°52.541 345.5 13.8 348 11.4
2010-05-05 06:58:59 51°17.601 2°52.534 346.1 13.8 349 11.4
2010-05-05 06:59:05 51°17.623 2°52.531 349.5 13.9 355 11.7
2010-05-05 06:59:09 51°17.639 2°52.529 353 13.9 356 11.9
2010-05-05 06:59:14 51°17.658 2°52.529 355.7 13.9 359 11.8
2010-05-05 06:59:19 51°17.678 2°52.529 357.9 13.9 -999 11.6
2010-05-05 06:59:24 51°17.697 2°52.53 359.6 13.8 3 11.3
2010-05-05 06:59:29 51°17.716 2°52.532 1.9 13.9 4 11.6
2010-05-05 06:59:34 51°17.735 2°52.535 3.1 13.9 5 11.4
2010-05-05 06:59:39 51°17.754 2°52.538 4.4 13.8 6 11.7
2010-05-05 06:59:44 51°17.774 2°52.541 5.3 14 7 11.8
2010-05-05 06:59:49 51°17.793 2°52.545 6.4 14 7 11.6
2010-05-05 06:59:54 51°17.812 2°52.549 6.6 14 8 11.6
2010-05-05 06:59:59 51°17.831 2°52.554 7.4 14.1 8 11.7
2010-05-05 07:00:04 51°17.851 2°52.558 7.8 14.1 8 12
2010-05-05 07:00:09 51°17.87 2°52.562 7.7 14 8 11.4
2010-05-05 07:00:14 51°17.889 2°52.566 7.3 14.1 8 12.1
2010-05-05 07:00:19 51°17.909 2°52.571 7.7 14.1 8 11.8
2010-05-05 07:00:24 51°17.928 2°52.574 7.4 14.1 7 12.1
2010-05-05 07:00:29 51°17.948 2°52.579 7 14.1 8 11.9
2010-05-05 07:00:34 51°17.967 2°52.584 8.3 14.1 11 11.7
2010-05-05 07:00:39 51°17.986 2°52.591 10.7 14.2 12 12.3
2010-05-05 07:00:44 51°18.005 2°52.598 12 14.1 14 12.4
2010-05-05 07:00:49 51°18.024 2°52.606 13.7 14.1 15 12.3
2010-05-05 07:00:54 51°18.043 2°52.615 14.6 14.3 15 12.4
2010-05-05 07:00:59 51°18.061 2°52.625 15.7 14.1 20 11.9
2010-05-05 07:01:04 51°18.08 2°52.635 18.2 14.1 18 12.1
2010-05-05 07:01:09 51°18.098 2°52.646 20 14.1 22 12.1
2010-05-05 07:01:14 51°18.116 2°52.659 22.6 14.2 22 11.9
2010-05-05 07:01:19 51°18.134 2°52.671 23.3 14.1 26 12
2010-05-05 07:01:25 51°18.155 2°52.688 25.5 14.2 24 12.2
2010-05-05 07:01:29 51°18.17 2°52.698 25.1 14.2 25 12.5
2010-05-05 07:01:34 51°18.187 2°52.713 26.1 14.3 28 12.5
2010-05-05 07:01:39 51°18.205 2°52.726 26.8 14.2 26 12
2010-05-05 07:01:44 51°18.222 2°52.742 27.7 14.2 28 12.3
2010-05-05 07:01:49 51°18.24 2°52.756 28 14.2 28 12.3
2010-05-05 07:01:54 51°18.257 2°52.771 28.5 14.2 28 12.4
2010-05-05 07:01:59 51°18.274 2°52.786 28.8 14.3 28 12.6
2010-05-05 07:02:04 51°18.292 2°52.801 28.5 14.4 28 13
2010-05-05 07:02:09 51°18.309 2°52.815 28.3 14.1 27 12.4
2010-05-05 07:02:14 51°18.327 2°52.828 27.8 14.1 25 12
2010-05-05 07:02:19 51°18.345 2°52.84 25.5 14.1 22 12.3
2010-05-05 07:02:24 51°18.363 2°52.851 22.7 14.1 20 12.3
2010-05-05 07:02:29 51°18.382 2°52.86 20.4 14 19 12.3
2010-05-05 07:02:34 51°18.4 2°52.869 19 13.9 17 12.5
2010-05-05 07:02:39 51°18.419 2°52.877 17.2 14.1 15 13.1
2010-05-05 07:02:44 51°18.438 2°52.885 15.6 13.9 14 13
2010-05-05 07:02:49 51°18.456 2°52.892 14.4 13.9 14 12.2
2010-05-05 07:02:54 51°18.475 2°52.899 13.1 14 11 12.3
2010-05-05 07:02:59 51°18.494 2°52.905 12 13.9 12 12.3
2010-05-05 07:03:04 51°18.513 2°52.911 11.8 13.9 11 12.7
2010-05-05 07:03:09 51°18.532 2°52.916 11.2 13.9 10 12.6
2010-05-05 07:03:14 51°18.551 2°52.922 10.3 14 10 12.7
2010-05-05 07:03:19 51°18.57 2°52.927 10.3 14 9 12.7
2010-05-05 07:03:24 51°18.589 2°52.932 10.1 14 9 12.5
2010-05-05 07:03:29 51°18.609 2°52.936 8.4 14.1 7 13.2
2010-05-05 07:03:34 51°18.628 2°52.94 7.7 14.1 8 12.7
2010-05-05 07:03:39 51°18.647 2°52.943 6.5 13.9 6 12.4
2010-05-05 07:03:44 51°18.666 2°52.946 6 14 6 12.8
2010-05-05 07:03:49 51°18.686 2°52.949 5.5 14 4 12.9
2010-05-05 07:03:54 51°18.705 2°52.952 5.2 14.1 6 13.1
2010-05-05 07:03:59 51°18.724 2°52.954 4.8 14.1 4 12.7
2010-05-05 07:04:04 51°18.744 2°52.957 4.5 14 5 12.8
2010-05-05 07:04:09 51°18.763 2°52.959 4.5 14.1 5 12.9
2010-05-05 07:04:14 51°18.782 2°52.962 4.4 14 5 12.9
2010-05-05 07:04:19 51°18.802 2°52.965 4.4 14 5 12.7
2010-05-05 07:04:24 51°18.821 2°52.968 4.6 14 5 13.2
2010-05-05 07:04:29 51°18.841 2°52.971 4.6 14 6 13
2010-05-05 07:04:34 51°18.86 2°52.974 4.7 14.1 5 13
2010-05-05 07:04:39 51°18.88 2°52.976 4.6 14.1 5 12.9
2010-05-05 07:04:44 51°18.899 2°52.979 4.5 14 5 12.7
2010-05-05 07:04:49 51°18.918 2°52.982 4.5 14 5 13.2
2010-05-05 07:04:54 51°18.938 2°52.985 4.5 14 5 13.4
2010-05-05 07:04:59 51°18.957 2°52.987 4.6 14 5 13
2010-05-05 07:05:04 51°18.977 2°52.99 4.7 14 5 13.2
2010-05-05 07:05:09 51°18.996 2°52.992 4.4 14 4 13.5
2010-05-05 07:05:14 51°19.015 2°52.995 4.6 14 5 13.2
2010-05-05 07:05:19 51°19.035 2°52.998 4.4 14 5 13.5
2010-05-05 07:05:24 51°19.054 2°53.001 4.8 14 6 13.9
2010-05-05 07:05:29 51°19.074 2°53.004 5.1 14.1 5 14
2010-05-05 07:05:34 51°19.093 2°53.007 4.8 14.1 6 13.6
2010-05-05 07:05:39 51°19.113 2°53.01 5.2 14.2 6 14
2010-05-05 07:05:44 51°19.132 2°53.013 5.1 14.1 4 14
2010-05-05 07:05:49 51°19.152 2°53.016 4.6 14.1 6 14
2010-05-05 07:05:54 51°19.171 2°53.018 4.7 14.1 5 13.5
2010-05-05 07:05:59 51°19.191 2°53.021 4.9 14.1 5 14
2010-05-05 07:06:04 51°19.21 2°53.024 4.7 14.1 5 14
2010-05-05 07:06:09 51°19.229 2°53.027 4.6 14.1 5 14.4
2010-05-05 07:06:14 51°19.249 2°53.03 4.6 14.1 5 13.9
2010-05-05 07:06:19 51°19.268 2°53.032 4.8 14 5 14.3
2010-05-05 07:06:24 51°19.288 2°53.035 4.9 14.1 5 14.4
2010-05-05 07:06:29 51°19.307 2°53.038 5 14 6 14.6
2010-05-05 07:06:34 51°19.326 2°53.041 5.2 14 6 14.6
2010-05-05 07:06:39 51°19.346 2°53.044 5.1 14.1 6 15
2010-05-05 07:06:44 51°19.365 2°53.047 5.2 14.1 6 15
2010-05-05 07:06:49 51°19.385 2°53.05 5.2 14.1 5 15.1
2010-05-05 07:06:54 51°19.404 2°53.054 5.1 14.2 6 15.1
2010-05-05 07:06:59 51°19.424 2°53.057 5.3 14.2 6 15.5
2010-05-05 07:07:04 51°19.443 2°53.06 5.3 14 6 15.3
2010-05-05 07:07:09 51°19.462 2°53.063 5.5 14 6 15
2010-05-05 07:07:14 51°19.482 2°53.066 5 14 6 14.9
2010-05-05 07:07:19 51°19.501 2°53.069 5.2 14 5 14.8
2010-05-05 07:07:24 51°19.52 2°53.071 4.5 13.9 6 14.9
2010-05-05 07:07:29 51°19.539 2°53.075 5 13.9 6 15.5
2010-05-05 07:07:34 51°19.559 2°53.078 5 13.9 5 15.7
2010-05-05 07:07:39 51°19.578 2°53.081 5.2 14.1 6 15.5
2010-05-05 07:07:44 51°19.597 2°53.084 5.2 14.1 5 15.8
2010-05-05 07:07:49 51°19.617 2°53.087 5.3 14 6 16
2010-05-05 07:07:54 51°19.636 2°53.09 5.5 14.1 5 15.8
2010-05-05 07:07:59 51°19.655 2°53.093 5.3 14 6 15.6
2010-05-05 07:08:04 51°19.674 2°53.096 5.2 14 6 16
2010-05-05 07:08:09 51°19.694 2°53.099 5.3 14 5 16.1
2010-05-05 07:08:14 51°19.713 2°53.102 5.5 14 6 15.9
2010-05-05 07:08:19 51°19.732 2°53.105 5.5 13.8 5 15.8
2010-05-05 07:08:25 51°19.755 2°53.109 5.6 13.9 6 16.4
2010-05-05 07:08:29 51°19.771 2°53.111 5.6 13.9 5 16.7
2010-05-05 07:08:34 51°19.79 2°53.114 5.5 14 5 17
2010-05-05 07:08:39 51°19.809 2°53.117 5.2 13.9 5 16.8
2010-05-05 07:08:44 51°19.829 2°53.12 5.2 13.8 5 17
2010-05-05 07:08:49 51°19.848 2°53.122 5.2 13.8 5 16.5
2010-05-05 07:08:54 51°19.867 2°53.125 5.1 13.9 5 16.8
2010-05-05 07:08:59 51°19.886 2°53.128 5.2 13.8 5 16.6
2010-05-05 07:09:04 51°19.905 2°53.131 5.3 13.8 5 16.7
2010-05-05 07:09:09 51°19.925 2°53.133 5.4 13.9 4 17.4
2010-05-05 07:09:14 51°19.944 2°53.135 5.2 13.8 5 16.9
2010-05-05 07:09:19 51°19.963 2°53.138 5.2 13.9 5 16.8
2010-05-05 07:09:24 51°19.982 2°53.14 5.2 13.9 4 16.5
2010-05-05 07:09:29 51°20.001 2°53.143 5.2 13.8 5 16.8
2010-05-05 07:09:34 51°20.021 2°53.146 5.3 13.8 5 17.6
2010-05-05 07:09:39 51°20.04 2°53.148 5.3 13.8 5 17.6
2010-05-05 07:09:44 51°20.059 2°53.151 5.5 13.7 4 17.1
2010-05-05 07:09:49 51°20.078 2°53.153 5.3 13.8 4 16.9
2010-05-05 07:09:54 51°20.099 2°53.157 5.6 13.9 4 16.9
2010-05-05 07:09:59 51°20.117 2°53.159 5.4 13.9 4 17.6
2010-05-05 07:10:04 51°20.136 2°53.161 5.4 13.8 5 17.7
2010-05-05 07:10:09 51°20.155 2°53.164 5.6 13.8 5 17.2
2010-05-05 07:10:14 51°20.174 2°53.167 5.8 13.9 5 17.4
2010-05-05 07:10:19 51°20.193 2°53.169 5.9 14 5 17.6
2010-05-05 07:10:25 51°20.216 2°53.172 5.7 13.8 5 17.5
2010-05-05 07:10:29 51°20.231 2°53.175 5.7 13.8 5 17.7
2010-05-05 07:10:34 51°20.25 2°53.177 5.7 13.8 5 17.9
2010-05-05 07:10:39 51°20.27 2°53.18 5.3 13.9 4 17.8
2010-05-05 07:10:44 51°20.29 2°53.18 3.3 14 3 17.7
2010-05-05 07:10:49 51°20.309 2°53.182 3 13.9 2 17.7
2010-05-05 07:10:54 51°20.328 2°53.181 1.7 13.9 -999 17.8
2010-05-05 07:10:59 51°20.348 2°53.182 1.2 14 -999 17.8
2010-05-05 07:11:04 51°20.367 2°53.181 0.7 14 359 17.5
2010-05-05 07:11:09 51°20.387 2°53.181 -999 14 -999 17.1
2010-05-05 07:11:14 51°20.406 2°53.18 359.6 14 359 17.7
2010-05-05 07:11:19 51°20.425 2°53.18 359.7 14 -999 17.7
2010-05-05 07:11:24 51°20.445 2°53.179 359.7 14 359 18
2010-05-05 07:11:29 51°20.464 2°53.179 359.7 13.9 359 18.1
2010-05-05 07:11:34 51°20.483 2°53.178 359.5 14 359 18.3
2010-05-05 07:11:39 51°20.502 2°53.177 359.4 14 359 18.3
2010-05-05 07:11:44 51°20.522 2°53.177 359.6 13.8 359 17.7
2010-05-05 07:11:49 51°20.541 2°53.177 359.8 13.8 359 17.6
2010-05-05 07:11:54 51°20.56 2°53.176 359.7 13.7 359 17.4
2010-05-05 07:11:59 51°20.579 2°53.176 -999 13.8 359 18
2010-05-05 07:12:04 51°20.598 2°53.175 359.9 13.6 359 17.5
2010-05-05 07:12:09 51°20.617 2°53.175 359.7 13.6 -999 17.2
2010-05-05 07:12:14 51°20.636 2°53.175 359.9 13.7 359 18.1
2010-05-05 07:12:19 51°20.655 2°53.174 -999 13.6 359 17.5
2010-05-05 07:12:24 51°20.673 2°53.173 359.7 13.6 358 17.2
2010-05-05 07:12:29 51°20.692 2°53.173 359.7 13.7 359 17.5
2010-05-05 07:12:34 51°20.712 2°53.172 359.7 13.7 359 17.4
2010-05-05 07:12:39 51°20.73 2°53.171 359.7 13.7 358 17.6
2010-05-05 07:12:44 51°20.749 2°53.17 359.7 13.7 358 17.9
2010-05-05 07:12:49 51°20.769 2°53.169 359.8 13.7 359 17.8
2010-05-05 07:12:54 51°20.788 2°53.169 -999 13.9 359 17.8
2010-05-05 07:12:59 51°20.807 2°53.168 0.1 13.7 358 16.9
2010-05-05 07:13:04 51°20.826 2°53.168 -999 13.6 359 17
2010-05-05 07:13:09 51°20.845 2°53.168 0.2 13.6 359 17.6
2010-05-05 07:13:14 51°20.863 2°53.167 0.3 13.7 -999 18.3
2010-05-05 07:13:19 51°20.882 2°53.168 0.5 13.7 -999 17.9
2010-05-05 07:13:24 51°20.901 2°53.167 0.5 13.6 359 17.5
2010-05-05 07:13:29 51°20.92 2°53.166 0.3 13.6 359 17.3
2010-05-05 07:13:34 51°20.939 2°53.166 0.3 13.6 -999 17.8
2010-05-05 07:13:39 51°20.958 2°53.165 0.2 13.7 -999 17.9
2010-05-05 07:13:44 51°20.977 2°53.165 0.6 13.7 359 17.4
2010-05-05 07:13:49 51°20.996 2°53.164 0.1 13.8 359 17.1
2010-05-05 07:13:53 51°21.011 2°53.164 0.1 13.5 359 16.6
2010-05-05 07:13:59 51°21.033 2°53.163 0.1 13.7 359 17.2
2010-05-05 07:14:04 51°21.053 2°53.163 0.3 13.7 359 17.3
2010-05-05 07:14:09 51°21.071 2°53.162 0.1 13.7 359 17.2
2010-05-05 07:14:14 51°21.09 2°53.162 359.9 13.8 359 17.3
2010-05-05 07:14:19 51°21.11 2°53.161 0.1 13.8 359 16.5
2010-05-05 07:14:24 51°21.129 2°53.16 -999 13.7 359 16.3
2010-05-05 07:14:29 51°21.148 2°53.16 0.1 13.8 359 16.5
2010-05-05 07:14:34 51°21.167 2°53.16 0.2 13.8 359 16.4
2010-05-05 07:14:39 51°21.186 2°53.16 0.5 13.8 -999 16.7
2010-05-05 07:14:44 51°21.205 2°53.16 0.6 13.9 -999 16.4
2010-05-05 07:14:49 51°21.225 2°53.16 0.7 13.9 -999 16.6
2010-05-05 07:14:54 51°21.244 2°53.159 0.5 13.9 359 16.8
2010-05-05 07:14:59 51°21.263 2°53.159 0.4 13.7 -999 16.3
2010-05-05 07:15:04 51°21.282 2°53.158 0.4 13.7 359 15.9
2010-05-05 07:15:09 51°21.301 2°53.158 -999 13.7 359 16.7
2010-05-05 07:15:14 51°21.32 2°53.157 -999 13.7 359 16.6
2010-05-05 07:15:19 51°21.339 2°53.157 0.1 13.7 -999 16.5
2010-05-05 07:15:24 51°21.358 2°53.157 0.1 13.6 359 16.5
2010-05-05 07:15:29 51°21.377 2°53.157 0.1 13.7 -999 17
2010-05-05 07:15:34 51°21.396 2°53.156 0.4 13.8 -999 17
2010-05-05 07:15:39 51°21.415 2°53.156 0.2 13.8 -999 17.1
2010-05-05 07:15:44 51°21.434 2°53.156 0.3 13.7 -999 17.1
2010-05-05 07:15:49 51°21.453 2°53.156 0.4 13.7 -999 16.8
2010-05-05 07:15:54 51°21.471 2°53.155 0.3 13.8 359 17.7
2010-05-05 07:15:59 51°21.49 2°53.155 0.1 13.6 -999 17.3
2010-05-05 07:16:04 51°21.509 2°53.155 0.2 13.7 -999 17.6
2010-05-05 07:16:09 51°21.528 2°53.155 0.4 13.8 -999 17.9
2010-05-05 07:16:14 51°21.547 2°53.155 0.4 13.7 359 17.6
2010-05-05 07:16:19 51°21.566 2°53.155 0.1 13.7 -999 18
2010-05-05 07:16:24 51°21.585 2°53.155 0.1 13.7 359 18
2010-05-05 07:16:29 51°21.605 2°53.155 0.1 13.8 359 18.3
2010-05-05 07:16:34 51°21.624 2°53.155 0.1 13.8 -999 18.5
2010-05-05 07:16:39 51°21.643 2°53.155 -999 13.8 -999 18.8
2010-05-05 07:16:44 51°21.663 2°53.155 -999 13.8 -999 18.8
2010-05-05 07:16:49 51°21.682 2°53.155 0.3 13.9 -999 19
2010-05-05 07:16:54 51°21.701 2°53.154 -999 13.8 -999 18.9
2010-05-05 07:16:59 51°21.72 2°53.155 359.8 13.7 1 19
2010-05-05 07:17:04 51°21.739 2°53.155 0.1 13.8 -999 19.7
2010-05-05 07:17:09 51°21.758 2°53.155 0.1 13.8 1 19.9
2010-05-05 07:17:14 51°21.777 2°53.156 0.4 13.8 1 20.1
2010-05-05 07:17:19 51°21.796 2°53.156 0.4 13.8 1 20.2
2010-05-05 07:17:25 51°21.819 2°53.156 0.7 13.8 -999 20.3
2010-05-05 07:17:29 51°21.834 2°53.156 0.2 13.8 -999 20.6
2010-05-05 07:17:34 51°21.854 2°53.156 0.1 13.8 -999 20.9
2010-05-05 07:17:39 51°21.873 2°53.156 359.9 13.9 -999 21.1
2010-05-05 07:17:44 51°21.892 2°53.156 -999 14 -999 21.7
2010-05-05 07:17:49 51°21.911 2°53.157 0.2 13.9 1 21.8
2010-05-05 07:17:54 51°21.93 2°53.157 0.3 13.9 -999 21.9
2010-05-05 07:17:59 51°21.95 2°53.157 0.3 13.9 1 21.8
2010-05-05 07:18:04 51°21.969 2°53.157 0.5 13.9 -999 21.9
2010-05-05 07:18:09 51°21.988 2°53.157 0.3 13.9 -999 21.5
2010-05-05 07:18:14 51°22.007 2°53.158 0.3 13.8 1 22
2010-05-05 07:18:19 51°22.026 2°53.158 0.4 13.8 -999 22.6
2010-05-05 07:18:24 51°22.045 2°53.158 0.2 13.8 1 22.6
2010-05-05 07:18:29 51°22.064 2°53.158 0.5 13.7 1 22.1
2010-05-05 07:18:34 51°22.083 2°53.158 0.4 13.6 1 23
2010-05-05 07:18:39 51°22.102 2°53.159 0.4 13.7 -999 23.4
2010-05-05 07:18:44 51°22.121 2°53.158 359.9 13.8 1 23.7
2010-05-05 07:18:49 51°22.14 2°53.159 0.5 13.8 1 23.9
2010-05-05 07:18:54 51°22.159 2°53.158 0.5 13.7 359 23.6
2010-05-05 07:18:59 51°22.178 2°53.16 0.1 13.6 1 23.3
2010-05-05 07:19:04 51°22.197 2°53.16 0.7 13.7 -999 23.9
2010-05-05 07:19:09 51°22.216 2°53.16 0.5 13.7 1 24.1
2010-05-05 07:19:14 51°22.235 2°53.16 0.2 13.7 -999 23.9
2010-05-05 07:19:19 51°22.254 2°53.16 0.1 13.9 -999 24.3
2010-05-05 07:19:24 51°22.273 2°53.16 359.9 13.8 -999 24.4
2010-05-05 07:19:29 51°22.292 2°53.159 -999 13.8 -999 24.5
2010-05-05 07:19:34 51°22.311 2°53.16 0.3 13.7 -999 24.4
2010-05-05 07:19:39 51°22.331 2°53.161 0.1 13.7 1 24.2
2010-05-05 07:19:44 51°22.35 2°53.161 0.1 13.8 -999 24.7
2010-05-05 07:19:49 51°22.369 2°53.162 0.1 13.8 1 24.5
2010-05-05 07:19:54 51°22.388 2°53.161 359.9 13.9 1 24.7
2010-05-05 07:19:59 51°22.407 2°53.161 0.3 13.8 359 24.8
2010-05-05 07:20:04 51°22.426 2°53.161 359.7 13.8 -999 24.6
2010-05-05 07:20:09 51°22.445 2°53.161 359.7 13.7 359 24.6
2010-05-05 07:20:14 51°22.464 2°53.161 359.6 13.8 1 24.1
2010-05-05 07:20:19 51°22.484 2°53.161 0.1 13.8 359 24
2010-05-05 07:20:24 51°22.503 2°53.161 359.8 13.8 1 24
2010-05-05 07:20:29 51°22.522 2°53.161 0.4 13.9 -999 23.7
2010-05-05 07:20:34 51°22.542 2°53.162 0.8 13.9 1 23.7
2010-05-05 07:20:39 51°22.561 2°53.161 0.1 13.8 359 23.5
2010-05-05 07:20:44 51°22.58 2°53.161 359.7 13.7 -999 23.7
2010-05-05 07:20:49 51°22.599 2°53.161 359.7 13.9 -999 23.1
2010-05-05 07:20:54 51°22.619 2°53.16 359.5 13.9 -999 23.5
2010-05-05 07:20:59 51°22.638 2°53.16 359.7 13.8 359 23.4
2010-05-05 07:21:04 51°22.657 2°53.159 359.4 13.9 359 24
2010-05-05 07:21:09 51°22.676 2°53.159 359.5 14 -999 23.6
2010-05-05 07:21:14 51°22.696 2°53.159 0.1 13.9 359 23.4
2010-05-05 07:21:19 51°22.715 2°53.159 -999 13.9 -999 23.5
2010-05-05 07:21:24 51°22.734 2°53.159 -999 14 -999 22.9
2010-05-05 07:21:29 51°22.754 2°53.158 0.3 14 -999 22.6
2010-05-05 07:21:34 51°22.773 2°53.158 0.5 14 -999 23.5
2010-05-05 07:21:39 51°22.792 2°53.158 0.8 14 -999 24
2010-05-05 07:21:44 51°22.812 2°53.157 0.5 14 359 23.8
2010-05-05 07:21:49 51°22.831 2°53.158 0.7 14 1 23.8
2010-05-05 07:21:54 51°22.851 2°53.157 0.8 14 359 23.7
2010-05-05 07:21:59 51°22.87 2°53.157 0.1 14 1 23.2
2010-05-05 07:22:04 51°22.889 2°53.157 0.7 14 -999 23.4
2010-05-05 07:22:09 51°22.908 2°53.156 0.5 14.1 359 23.6
2010-05-05 07:22:14 51°22.929 2°53.154 0.2 14.1 -999 22.5
2010-05-05 07:22:19 51°22.948 2°53.154 -999 13.9 359 22.5
2010-05-05 07:22:24 51°22.967 2°53.154 0.1 13.8 -999 23.2
2010-05-05 07:22:29 51°22.986 2°53.153 359.8 13.8 358 21.8
2010-05-05 07:22:34 51°23.005 2°53.154 -999 13.7 -999 22.6
2010-05-05 07:22:39 51°23.024 2°53.154 0.3 13.7 359 23.6
2010-05-05 07:22:44 51°23.043 2°53.154 0.1 13.7 359 23.3
2010-05-05 07:22:49 51°23.062 2°53.154 0.3 13.8 359 23.2
2010-05-05 07:22:54 51°23.081 2°53.154 0.1 13.9 -999 23.1
2010-05-05 07:22:59 51°23.101 2°53.154 0.1 14 -999 22.8
2010-05-05 07:23:04 51°23.12 2°53.154 0.5 14 1 22.8
2010-05-05 07:23:09 51°23.139 2°53.154 0.8 14 -999 22.1
2010-05-05 07:23:14 51°23.158 2°53.154 0.8 13.7 -999 21.4
2010-05-05 07:23:19 51°23.178 2°53.154 0.6 13.9 1 21.9
2010-05-05 07:23:24 51°23.197 2°53.154 0.7 13.8 -999 21.8
2010-05-05 07:23:29 51°23.216 2°53.154 0.2 13.9 -999 21.6
2010-05-05 07:23:34 51°23.235 2°53.156 0.5 14 1 21.5
2010-05-05 07:23:39 51°23.255 2°53.155 0.2 13.9 -999 21.6
2010-05-05 07:23:44 51°23.274 2°53.156 0.5 13.9 -999 21.1
2010-05-05 07:23:49 51°23.293 2°53.155 0.1 14 359 21.2
2010-05-05 07:23:54 51°23.313 2°53.155 359.9 14 -999 20.5
2010-05-05 07:23:59 51°23.332 2°53.155 0.4 13.9 -999 20.1
2010-05-05 07:24:04 51°23.351 2°53.155 0.4 14 -999 20.8
2010-05-05 07:24:09 51°23.371 2°53.155 0.6 14 1 22
2010-05-05 07:24:14 51°23.39 2°53.155 0.5 13.9 -999 22
2010-05-05 07:24:19 51°23.409 2°53.155 0.3 13.9 -999 21.6
2010-05-05 07:24:24 51°23.429 2°53.152 0.2 14 -999 22
2010-05-05 07:24:29 51°23.448 2°53.152 0.3 14 -999 22.1
2010-05-05 07:24:34 51°23.468 2°53.153 0.1 14.1 -999 22.1
2010-05-05 07:24:39 51°23.487 2°53.153 0.3 14.1 -999 21.8
2010-05-05 07:24:44 51°23.507 2°53.153 0.1 13.8 -999 20.9
2010-05-05 07:24:49 51°23.526 2°53.154 0.1 14 1 21.9
2010-05-05 07:24:54 51°23.545 2°53.154 0.4 14.1 -999 22.7
2010-05-05 07:24:59 51°23.565 2°53.154 0.3 14.1 -999 23.2
2010-05-05 07:25:04 51°23.584 2°53.154 0.2 14.1 -999 23
2010-05-05 07:25:09 51°23.604 2°53.154 -999 14.1 359 23
2010-05-05 07:25:14 51°23.623 2°53.154 359.9 14.1 359 23
2010-05-05 07:25:19 51°23.643 2°53.151 359.6 14.1 -999 23.4
2010-05-05 07:25:24 51°23.662 2°53.151 359.6 14 359 23
2010-05-05 07:25:29 51°23.681 2°53.151 359.6 14.1 -999 22.6
2010-05-05 07:25:34 51°23.701 2°53.151 0.2 14.1 359 22.9
2010-05-05 07:25:39 51°23.72 2°53.151 0.1 14.1 -999 22.2
2010-05-05 07:25:44 51°23.74 2°53.152 0.4 14.1 -999 22.7
2010-05-05 07:25:49 51°23.759 2°53.151 0.1 14 -999 22.9
2010-05-05 07:25:54 51°23.779 2°53.152 0.4 14.1 -999 22.6
2010-05-05 07:25:59 51°23.799 2°53.152 0.3 14 -999 22.6
2010-05-05 07:26:04 51°23.818 2°53.152 0.2 14 -999 21.5
2010-05-05 07:26:09 51°23.837 2°53.152 0.2 14 359 21.7
2010-05-05 07:26:14 51°23.857 2°53.152 0.4 14 -999 21.8
2010-05-05 07:26:19 51°23.876 2°53.152 0.6 14 -999 21.3
2010-05-05 07:26:25 51°23.9 2°53.151 0.3 14.1 -999 21.5
2010-05-05 07:26:29 51°23.915 2°53.151 0.4 13.9 -999 21.4
2010-05-05 07:26:34 51°23.934 2°53.151 0.5 13.9 -999 21.2
2010-05-05 07:26:39 51°23.954 2°53.151 0.6 14 359 19
2010-05-05 07:26:44 51°23.973 2°53.15 -999 14 359 19.6
2010-05-05 07:26:49 51°23.993 2°53.15 359.7 14 359 19.9
2010-05-05 07:26:54 51°24.012 2°53.147 359.8 13.9 -999 20.1
2010-05-05 07:26:59 51°24.031 2°53.146 359.9 14 358 19.3
2010-05-05 07:27:04 51°24.051 2°53.146 359.8 14 -999 19.1
2010-05-05 07:27:09 51°24.07 2°53.146 0.1 14.1 359 19.1
2010-05-05 07:27:14 51°24.09 2°53.146 -999 14.2 359 19.2
2010-05-05 07:27:19 51°24.11 2°53.145 359.9 14.2 359 19.9
2010-05-05 07:27:24 51°24.129 2°53.145 0.1 14 -999 19.1
2010-05-05 07:27:29 51°24.148 2°53.145 0.4 13.9 359 18.8
2010-05-05 07:27:34 51°24.168 2°53.144 0.2 14 359 19.2
2010-05-05 07:27:39 51°24.187 2°53.144 0.1 14.2 359 19.5
2010-05-05 07:27:44 51°24.207 2°53.144 -999 14.1 359 21.3
2010-05-05 07:27:49 51°24.227 2°53.144 0.3 14.1 -999 19.4
2010-05-05 07:27:54 51°24.246 2°53.143 0.5 14.1 359 15.8
2010-05-05 07:27:59 51°24.265 2°53.143 0.6 14.2 -999 17.6
2010-05-05 07:28:04 51°24.285 2°53.143 0.8 14.1 359 18.7
2010-05-05 07:28:09 51°24.304 2°53.142 0.5 14 359 18.9
2010-05-05 07:28:14 51°24.324 2°53.142 -999 14 359 19.1
2010-05-05 07:28:19 51°24.343 2°53.141 359.9 14.1 359 19.7
2010-05-05 07:28:24 51°24.362 2°53.14 0.4 13.8 359 19.4
2010-05-05 07:28:29 51°24.381 2°53.14 0.5 13.9 -999 16.5
2010-05-05 07:28:34 51°24.401 2°53.14 0.8 13.9 359 17.9
2010-05-05 07:28:39 51°24.42 2°53.14 0.3 14.1 -999 18.9
2010-05-05 07:28:44 51°24.44 2°53.139 0.3 13.9 359 18.8
2010-05-05 07:28:49 51°24.459 2°53.139 0.5 13.9 359 19.6
2010-05-05 07:28:54 51°24.478 2°53.139 0.8 14 359 20.1
2010-05-05 07:28:59 51°24.498 2°53.138 0.8 14.1 359 19.6
2010-05-05 07:29:04 51°24.517 2°53.137 0.3 13.9 -999 19
2010-05-05 07:29:09 51°24.536 2°53.136 0.7 13.9 359 19.9
2010-05-05 07:29:14 51°24.555 2°53.136 0.9 13.9 359 19.8
2010-05-05 07:29:19 51°24.575 2°53.135 0.6 13.9 358 19.4
2010-05-05 07:29:24 51°24.594 2°53.135 1 14 358 19.4
2010-05-05 07:29:29 51°24.613 2°53.133 0.5 13.9 358 20
2010-05-05 07:29:34 51°24.633 2°53.133 0.1 13.8 359 20.3
2010-05-05 07:29:39 51°24.652 2°53.132 0.6 13.9 358 20.7
2010-05-05 07:29:44 51°24.671 2°53.132 0.5 13.8 359 20.6
2010-05-05 07:29:49 51°24.69 2°53.131 0.8 13.8 358 20.4
2010-05-05 07:29:54 51°24.709 2°53.13 0.3 13.9 358 20.2
2010-05-05 07:29:59 51°24.729 2°53.129 0.3 13.8 358 19.7
2010-05-05 07:30:04 51°24.748 2°53.129 0.3 13.7 358 19.3
2010-05-05 07:30:09 51°24.767 2°53.128 0.4 13.8 359 18.6
2010-05-05 07:30:14 51°24.786 2°53.127 0.3 13.9 358 17.8
2010-05-05 07:30:19 51°24.806 2°53.126 0.6 13.9 358 18.9
2010-05-05 07:30:24 51°24.825 2°53.125 0.7 14 358 19.6
2010-05-05 07:30:29 51°24.844 2°53.124 0.6 13.9 359 19.8
2010-05-05 07:30:34 51°24.864 2°53.123 0.8 13.9 358 19.5
2010-05-05 07:30:39 51°24.883 2°53.123 0.7 13.8 359 19.6
2010-05-05 07:30:44 51°24.902 2°53.122 0.6 13.9 358 20
2010-05-05 07:30:49 51°24.921 2°53.121 0.7 13.8 358 20.3
2010-05-05 07:30:54 51°24.94 2°53.12 0.3 13.9 358 20.3
2010-05-05 07:30:59 51°24.959 2°53.118 0.5 13.7 358 20.8
2010-05-05 07:31:04 51°24.978 2°53.117 0.3 13.8 358 21.4
2010-05-05 07:31:09 51°24.998 2°53.116 0.4 13.8 358 21.7
2010-05-05 07:31:14 51°25.017 2°53.115 0.5 13.9 359 21.5
2010-05-05 07:31:19 51°25.036 2°53.114 0.7 13.9 358 20.6
2010-05-05 07:31:24 51°25.055 2°53.114 0.6 13.9 358 21.7
2010-05-05 07:31:29 51°25.075 2°53.114 1 14 359 22.6
2010-05-05 07:31:34 51°25.094 2°53.113 0.8 13.8 358 22.5
2010-05-05 07:31:39 51°25.113 2°53.112 0.3 13.9 358 22.9
2010-05-05 07:31:44 51°25.132 2°53.111 0.3 13.9 358 23.2
2010-05-05 07:31:49 51°25.151 2°53.109 359.9 13.9 357 23.8
2010-05-05 07:31:54 51°25.171 2°53.109 0.3 13.9 358 23.5
2010-05-05 07:31:59 51°25.19 2°53.108 0.1 13.8 357 23.6
2010-05-05 07:32:04 51°25.209 2°53.107 359.7 13.8 359 23.7
2010-05-05 07:32:09 51°25.228 2°53.106 0.1 13.9 357 24.2
2010-05-05 07:32:14 51°25.247 2°53.105 0.1 13.9 358 24.1
2010-05-05 07:32:19 51°25.266 2°53.103 0.1 13.9 357 23.7
2010-05-05 07:32:24 51°25.286 2°53.102 359.8 13.8 358 23.6
2010-05-05 07:32:29 51°25.305 2°53.101 0.1 13.9 358 24.6
2010-05-05 07:32:34 51°25.324 2°53.1 0.5 13.8 359 24.1
2010-05-05 07:32:39 51°25.343 2°53.099 0.6 13.8 358 24.8
2010-05-05 07:32:44 51°25.362 2°53.099 0.3 13.9 358 24.7
2010-05-05 07:32:49 51°25.381 2°53.097 0.2 13.8 358 24.8
2010-05-05 07:32:54 51°25.4 2°53.097 0.4 13.9 359 24.8
2010-05-05 07:32:59 51°25.419 2°53.095 0.4 13.7 357 24.4
2010-05-05 07:33:04 51°25.438 2°53.094 0.1 13.8 359 24.7
2010-05-05 07:33:09 51°25.458 2°53.094 0.1 13.8 358 24.7
2010-05-05 07:33:14 51°25.477 2°53.093 0.1 13.8 358 25.2
2010-05-05 07:33:19 51°25.496 2°53.092 359.9 13.8 358 24.6
2010-05-05 07:33:24 51°25.515 2°53.091 -999 13.8 358 24.7
2010-05-05 07:33:29 51°25.534 2°53.089 0.1 13.8 358 24.8
2010-05-05 07:33:34 51°25.553 2°53.088 0.6 13.8 357 25.1
2010-05-05 07:33:39 51°25.572 2°53.088 0.2 13.8 359 25
2010-05-05 07:33:44 51°25.592 2°53.086 0.3 13.9 358 24.9
2010-05-05 07:33:49 51°25.611 2°53.085 0.4 14 359 24.7
2010-05-05 07:33:54 51°25.631 2°53.084 0.4 14 358 25.1
2010-05-05 07:33:59 51°25.65 2°53.084 0.1 13.9 359 25.7
2010-05-05 07:34:04 51°25.669 2°53.083 0.4 14 358 25.9
2010-05-05 07:34:09 51°25.688 2°53.082 0.3 13.9 359 26.9
2010-05-05 07:34:14 51°25.708 2°53.082 0.6 13.8 358 26.2
2010-05-05 07:34:19 51°25.727 2°53.081 0.1 13.9 358 26.2
2010-05-05 07:34:24 51°25.746 2°53.08 0.6 14 358 26.4
2010-05-05 07:34:29 51°25.765 2°53.079 0.4 13.9 357 26.2
2010-05-05 07:34:34 51°25.785 2°53.078 0.1 13.9 359 25.9
2010-05-05 07:34:39 51°25.804 2°53.077 0.3 13.8 357 26.2
2010-05-05 07:34:44 51°25.823 2°53.076 0.1 13.8 358 26.9
2010-05-05 07:34:49 51°25.842 2°53.076 0.3 13.9 359 27.8
2010-05-05 07:34:54 51°25.862 2°53.075 0.5 14 358 27.9
2010-05-05 07:34:59 51°25.881 2°53.074 0.4 14 359 28
2010-05-05 07:35:04 51°25.9 2°53.073 0.1 14 359 28.3
2010-05-05 07:35:09 51°25.919 2°53.072 0.5 13.9 359 28.7
2010-05-05 07:35:14 51°25.939 2°53.072 0.9 13.9 359 28.6
2010-05-05 07:35:19 51°25.958 2°53.071 0.6 13.8 358 28.7
2010-05-05 07:35:24 51°25.977 2°53.07 0.8 13.9 358 29.8
2010-05-05 07:35:29 51°25.996 2°53.069 0.4 13.9 358 29.4
2010-05-05 07:35:34 51°26.016 2°53.068 359.4 13.9 358 29.4
2010-05-05 07:35:39 51°26.035 2°53.067 -999 13.9 359 29.2
2010-05-05 07:35:44 51°26.054 2°53.066 0.4 13.9 358 29.3
2010-05-05 07:35:49 51°26.073 2°53.065 0.2 14 359 29.8
2010-05-05 07:35:54 51°26.093 2°53.064 0.2 13.9 359 29.4
2010-05-05 07:35:59 51°26.112 2°53.064 -999 13.8 359 30.3
2010-05-05 07:36:04 51°26.131 2°53.065 1.4 13.8 3 30.5
2010-05-05 07:36:09 51°26.15 2°53.067 4.1 13.8 3 30.9
2010-05-05 07:36:14 51°26.17 2°53.069 4.9 13.9 4 30.7
2010-05-05 07:36:19 51°26.189 2°53.072 6.4 13.8 6 31
2010-05-05 07:36:24 51°26.208 2°53.075 7.1 13.9 7 31.1
2010-05-05 07:36:29 51°26.227 2°53.079 8.6 13.9 7 30.9
2010-05-05 07:36:34 51°26.246 2°53.082 9 13.9 7 30.5
2010-05-05 07:36:39 51°26.265 2°53.087 10 14 8 30.4
2010-05-05 07:36:44 51°26.284 2°53.091 10.4 14 8 30.4
2010-05-05 07:36:49 51°26.304 2°53.096 10.9 14.1 9 31.3
2010-05-05 07:36:54 51°26.323 2°53.101 11 14 9 30.9
2010-05-05 07:36:59 51°26.342 2°53.106 11.7 14 9 30.7
2010-05-05 07:37:04 51°26.361 2°53.111 11.6 14 9 30.7
2010-05-05 07:37:09 51°26.38 2°53.115 11.6 13.9 9 30.1
2010-05-05 07:37:14 51°26.398 2°53.121 11.5 13.9 10 30.1
2010-05-05 07:37:18 51°26.414 2°53.124 11.6 13.9 8 30
2010-05-05 07:37:24 51°26.437 2°53.13 11.1 13.8 9 30.1
2010-05-05 07:37:29 51°26.456 2°53.134 11.1 13.8 8 30.3
2010-05-05 07:37:34 51°26.475 2°53.139 11.2 13.8 9 30.8
2010-05-05 07:37:39 51°26.494 2°53.144 11.3 13.9 8 31.3
2010-05-05 07:37:44 51°26.513 2°53.149 11.4 13.8 9 30.8
2010-05-05 07:37:49 51°26.532 2°53.153 11 13.8 8 30.8
2010-05-05 07:37:54 51°26.551 2°53.157 10.8 13.8 8 31
2010-05-05 07:37:59 51°26.57 2°53.162 11.1 13.9 8 31.4
2010-05-05 07:38:04 51°26.589 2°53.166 10.7 13.8 8 31.3
2010-05-05 07:38:09 51°26.608 2°53.171 11 13.9 9 31.4
2010-05-05 07:38:14 51°26.627 2°53.174 10.3 14 6 31.3
2010-05-05 07:38:19 51°26.646 2°53.179 10.8 13.8 9 31.1
2010-05-05 07:38:24 51°26.665 2°53.183 11 13.9 8 31.2
2010-05-05 07:38:29 51°26.684 2°53.188 11 13.9 9 31.7
2010-05-05 07:38:34 51°26.703 2°53.192 10.9 13.9 8 31.9
2010-05-05 07:38:39 51°26.722 2°53.196 10.9 13.8 9 30.5
2010-05-05 07:38:44 51°26.741 2°53.201 11.2 13.8 8 30.6
2010-05-05 07:38:49 51°26.76 2°53.205 11.1 13.8 8 30.7
2010-05-05 07:38:54 51°26.779 2°53.21 11 13.8 8 30.2
2010-05-05 07:38:59 51°26.799 2°53.214 11 13.9 8 30.2
2010-05-05 07:39:04 51°26.818 2°53.219 11.1 14 9 29.9
2010-05-05 07:39:09 51°26.837 2°53.223 11 14.1 7 29.8
2010-05-05 07:39:14 51°26.856 2°53.227 10.3 14 8 29.9
2010-05-05 07:39:19 51°26.875 2°53.232 10.6 14 9 30
2010-05-05 07:39:24 51°26.895 2°53.235 11.1 14 6 30.2
2010-05-05 07:39:29 51°26.914 2°53.24 10.7 13.9 8 29.7
2010-05-05 07:39:34 51°26.933 2°53.244 10.8 14 8 30.4
2010-05-05 07:39:39 51°26.952 2°53.248 10.8 13.9 8 29.8
2010-05-05 07:39:44 51°26.971 2°53.253 10.9 14 8 30.4
2010-05-05 07:39:49 51°26.991 2°53.257 10.8 14 8 30.5
2010-05-05 07:39:54 51°27.01 2°53.261 10.8 14 8 30.1
2010-05-05 07:39:59 51°27.029 2°53.265 10.8 14 8 29.7
2010-05-05 07:40:04 51°27.048 2°53.269 10.5 14 8 29.8
2010-05-05 07:40:09 51°27.067 2°53.273 10.5 14 8 30.6
2010-05-05 07:40:14 51°27.086 2°53.277 10.5 13.9 7 29.8
2010-05-05 07:40:19 51°27.105 2°53.282 10.5 14 9 30.4
2010-05-05 07:40:24 51°27.125 2°53.286 10.8 13.9 8 29.1
2010-05-05 07:40:29 51°27.144 2°53.29 10.2 13.9 7 27.9
2010-05-05 07:40:34 51°27.163 2°53.295 10.7 13.9 8 28.2
2010-05-05 07:40:39 51°27.182 2°53.299 10.3 13.9 7 28.5
2010-05-05 07:40:44 51°27.201 2°53.303 10.3 13.9 9 28.7
2010-05-05 07:40:49 51°27.221 2°53.308 10.6 14 8 26.2
2010-05-05 07:40:54 51°27.24 2°53.313 10.6 14.1 9 27
2010-05-05 07:40:59 51°27.259 2°53.317 10.5 14.2 9 28.2
2010-05-05 07:41:04 51°27.279 2°53.322 10.8 14.1 8 28.7
2010-05-05 07:41:09 51°27.299 2°53.327 10.8 14.1 8 28.2
2010-05-05 07:41:14 51°27.318 2°53.331 10.2 14.1 8 25.2
2010-05-05 07:41:19 51°27.337 2°53.336 10.2 14.1 8 27.4
2010-05-05 07:41:24 51°27.357 2°53.34 10.2 14.2 8 27.4
2010-05-05 07:41:29 51°27.376 2°53.345 10.2 14.2 9 26.9
2010-05-05 07:41:34 51°27.396 2°53.349 10.2 14.2 8 26.2
2010-05-05 07:41:39 51°27.416 2°53.354 10.3 14.2 9 24.7
2010-05-05 07:41:44 51°27.435 2°53.359 10.5 14.1 8 24.6
2010-05-05 07:41:49 51°27.454 2°53.364 10.5 14.1 9 25.1
2010-05-05 07:41:54 51°27.474 2°53.368 10.4 14.3 8 23.4
2010-05-05 07:41:59 51°27.494 2°53.373 10.4 14.3 8 23.8
2010-05-05 07:42:04 51°27.513 2°53.377 10 14.4 9 24.8
2010-05-05 07:42:09 51°27.533 2°53.382 10.5 14.5 9 24.4
2010-05-05 07:42:14 51°27.552 2°53.386 10.3 14.2 7 21.6
2010-05-05 07:42:19 51°27.572 2°53.39 10.2 14.1 9 22.5
2010-05-05 07:42:24 51°27.591 2°53.394 10.2 14.2 7 22.6
2010-05-05 07:42:29 51°27.611 2°53.399 10.4 14.1 9 22.8
2010-05-05 07:42:34 51°27.63 2°53.404 10.2 14.3 8 23.8
2010-05-05 07:42:39 51°27.65 2°53.408 10.2 14.3 8 22.5
2010-05-05 07:42:44 51°27.669 2°53.413 10.6 14.2 8 22.9
2010-05-05 07:42:49 51°27.689 2°53.417 10.3 14.3 7 22.1
2010-05-05 07:42:54 51°27.708 2°53.421 10.3 14.3 9 21.4
2010-05-05 07:42:59 51°27.728 2°53.426 10.3 14.2 8 21.8
2010-05-05 07:43:04 51°27.747 2°53.431 10.8 14.3 9 22.8
2010-05-05 07:43:09 51°27.767 2°53.436 10.3 14.4 8 20.7
2010-05-05 07:43:14 51°27.786 2°53.44 10.3 14.1 8 21.4
2010-05-05 07:43:19 51°27.806 2°53.445 10.3 14.1 8 21.9
2010-05-05 07:43:24 51°27.825 2°53.45 10.2 14.3 9 20.5
2010-05-05 07:43:29 51°27.845 2°53.454 10.9 14.3 8 21.6
2010-05-05 07:43:34 51°27.865 2°53.459 10.6 14.4 9 21.6
2010-05-05 07:43:39 51°27.884 2°53.463 10.2 14.3 8 21.2
2010-05-05 07:43:44 51°27.904 2°53.468 10.5 14.2 8 22.1
2010-05-05 07:43:49 51°27.923 2°53.472 10.7 14.3 8 21.7